Saint Anthony, Canada
Current Conditions -  °F | °C
As of 7:00 PM on Sunday 23 Nov 2014 (Local Time) from CYAY Reporting Station
Clear Clear  
Wind Chill:   Ceiling: Unl
Heat Index: 19°   Visibility: 9mi
Dew Point:   Wind: 20mph
Humidity: 63%   Direction: 280°W
Pressure: 29.73"   Gusts: 30mph
Location:  51.48°N, 55.81°W
Report Text: CYAY 232200Z AUTO 28017G26KT 9SM CLR M07/M13 A2973 RMK SLP071
Loading
Personal Weather Stations






























Interactive Weather Map New forecast layout! Learn more

10-Day Weather Forecast

Advertisements
Track Severe Weather on mobile